sensor_id;sensor_type;location;lat;lon;timestamp;P1;durP1;ratioP1;P2;durP2;ratioP2
57605;SDS011;43430;48.204;11.556;2023-02-28T00:01:09;5.35;;;1.40;;
57605;SDS011;43430;48.204;11.556;2023-02-28T00:03:34;4.93;;;1.45;;
57605;SDS011;43430;48.204;11.556;2023-02-28T00:06:03;4.28;;;1.25;;
57605;SDS011;43430;48.204;11.556;2023-02-28T00:08:29;3.63;;;1.00;;
57605;SDS011;43430;48.204;11.556;2023-02-28T00:10:55;5.00;;;1.30;;
57605;SDS011;43430;48.204;11.556;2023-02-28T00:13:20;4.25;;;1.00;;
57605;SDS011;43430;48.204;11.556;2023-02-28T00:15:46;4.10;;;1.35;;
57605;SDS011;43430;48.204;11.556;2023-02-28T00:18:11;6.07;;;1.70;;
57605;SDS011;43430;48.204;11.556;2023-02-28T00:20:37;4.72;;;1.00;;
57605;SDS011;43430;48.204;11.556;2023-02-28T00:23:02;6.30;;;1.33;;
57605;SDS011;43430;48.204;11.556;2023-02-28T00:25:28;3.65;;;1.02;;
57605;SDS011;43430;48.204;11.556;2023-02-28T00:27:53;3.95;;;1.15;;
57605;SDS011;43430;48.204;11.556;2023-02-28T00:30:19;3.45;;;1.05;;
57605;SDS011;43430;48.204;11.556;2023-02-28T00:32:47;3.60;;;1.25;;
57605;SDS011;43430;48.204;11.556;2023-02-28T00:35:13;4.85;;;1.70;;
57605;SDS011;43430;48.204;11.556;2023-02-28T00:37:38;4.32;;;1.23;;
57605;SDS011;43430;48.204;11.556;2023-02-28T00:40:04;7.32;;;1.33;;
57605;SDS011;43430;48.204;11.556;2023-02-28T00:42:31;5.70;;;1.20;;
57605;SDS011;43430;48.204;11.556;2023-02-28T00:44:57;5.28;;;2.15;;
57605;SDS011;43430;48.204;11.556;2023-02-28T00:47:22;6.28;;;1.55;;
57605;SDS011;43430;48.204;11.556;2023-02-28T00:49:47;3.53;;;1.30;;
57605;SDS011;43430;48.204;11.556;2023-02-28T00:52:13;3.80;;;1.63;;
57605;SDS011;43430;48.204;11.556;2023-02-28T00:54:38;6.03;;;1.50;;
57605;SDS011;43430;48.204;11.556;2023-02-28T00:57:03;4.70;;;1.38;;
57605;SDS011;43430;48.204;11.556;2023-02-28T00:59:29;4.95;;;1.10;;
57605;SDS011;43430;48.204;11.556;2023-02-28T01:01:54;4.38;;;1.25;;
57605;SDS011;43430;48.204;11.556;2023-02-28T01:04:20;4.68;;;1.55;;
57605;SDS011;43430;48.204;11.556;2023-02-28T01:06:45;4.15;;;1.35;;
57605;SDS011;43430;48.204;11.556;2023-02-28T01:09:11;4.78;;;1.52;;
57605;SDS011;43430;48.204;11.556;2023-02-28T01:11:37;4.75;;;1.38;;
57605;SDS011;43430;48.204;11.556;2023-02-28T01:14:03;3.70;;;0.85;;
57605;SDS011;43430;48.204;11.556;2023-02-28T01:16:29;7.78;;;1.60;;
57605;SDS011;43430;48.204;11.556;2023-02-28T01:18:55;5.13;;;1.50;;
57605;SDS011;43430;48.204;11.556;2023-02-28T01:21:20;4.53;;;1.33;;
57605;SDS011;43430;48.204;11.556;2023-02-28T01:23:47;4.43;;;1.35;;
57605;SDS011;43430;48.204;11.556;2023-02-28T01:28:40;6.40;;;1.50;;
57605;SDS011;43430;48.204;11.556;2023-02-28T01:31:06;5.05;;;1.23;;
57605;SDS011;43430;48.204;11.556;2023-02-28T01:33:32;4.05;;;1.33;;
57605;SDS011;43430;48.204;11.556;2023-02-28T01:35:59;3.08;;;1.23;;
57605;SDS011;43430;48.204;11.556;2023-02-28T01:38:26;4.20;;;1.30;;
57605;SDS011;43430;48.204;11.556;2023-02-28T01:40:51;5.07;;;1.42;;
57605;SDS011;43430;48.204;11.556;2023-02-28T01:43:19;5.80;;;1.65;;
57605;SDS011;43430;48.204;11.556;2023-02-28T01:45:48;4.22;;;1.20;;
57605;SDS011;43430;48.204;11.556;2023-02-28T01:48:13;7.45;;;1.80;;
57605;SDS011;43430;48.204;11.556;2023-02-28T01:50:41;6.93;;;1.63;;
57605;SDS011;43430;48.204;11.556;2023-02-28T01:53:14;4.72;;;1.35;;
57605;SDS011;43430;48.204;11.556;2023-02-28T01:58:11;5.50;;;1.60;;
57605;SDS011;43430;48.204;11.556;2023-02-28T02:00:37;6.05;;;1.60;;
57605;SDS011;43430;48.204;11.556;2023-02-28T02:03:08;4.95;;;1.55;;
57605;SDS011;43430;48.204;11.556;2023-02-28T02:05:35;6.30;;;1.80;;
57605;SDS011;43430;48.204;11.556;2023-02-28T02:08:03;5.35;;;1.70;;
57605;SDS011;43430;48.204;11.556;2023-02-28T02:34:44;6.00;;;1.75;;
57605;SDS011;43430;48.204;11.556;2023-02-28T02:45:39;3.70;;;1.40;;
57605;SDS011;43430;48.204;11.556;2023-02-28T02:48:03;5.93;;;1.55;;
57605;SDS011;43430;48.204;11.556;2023-02-28T02:50:34;6.30;;;1.63;;
57605;SDS011;43430;48.204;11.556;2023-02-28T02:53:03;5.35;;;1.75;;
57605;SDS011;43430;48.204;11.556;2023-02-28T02:55:31;5.18;;;1.63;;
57605;SDS011;43430;48.204;11.556;2023-02-28T02:58:02;5.18;;;1.70;;
57605;SDS011;43430;48.204;11.556;2023-02-28T03:00:42;5.53;;;1.85;;
57605;SDS011;43430;48.204;11.556;2023-02-28T03:03:12;5.10;;;1.58;;
57605;SDS011;43430;48.204;11.556;2023-02-28T03:05:44;6.70;;;2.38;;
57605;SDS011;43430;48.204;11.556;2023-02-28T03:08:12;6.22;;;2.33;;
57605;SDS011;43430;48.204;11.556;2023-02-28T03:10:40;6.22;;;1.67;;
57605;SDS011;43430;48.204;11.556;2023-02-28T03:18:41;5.93;;;1.65;;
57605;SDS011;43430;48.204;11.556;2023-02-28T03:24:07;5.65;;;1.75;;
57605;SDS011;43430;48.204;11.556;2023-02-28T03:26:39;6.63;;;2.00;;
57605;SDS011;43430;48.204;11.556;2023-02-28T03:29:13;7.32;;;2.17;;
57605;SDS011;43430;48.204;11.556;2023-02-28T03:31:49;8.65;;;2.25;;
57605;SDS011;43430;48.204;11.556;2023-02-28T03:34:22;6.22;;;2.45;;
57605;SDS011;43430;48.204;11.556;2023-02-28T03:36:53;8.40;;;2.53;;
57605;SDS011;43430;48.204;11.556;2023-02-28T03:39:29;6.43;;;2.28;;
57605;SDS011;43430;48.204;11.556;2023-02-28T03:42:03;7.40;;;2.78;;
57605;SDS011;43430;48.204;11.556;2023-02-28T03:44:33;5.75;;;2.03;;
57605;SDS011;43430;48.204;11.556;2023-02-28T03:47:08;6.85;;;2.35;;
57605;SDS011;43430;48.204;11.556;2023-02-28T03:49:46;8.73;;;2.80;;
57605;SDS011;43430;48.204;11.556;2023-02-28T03:52:17;7.47;;;2.28;;
57605;SDS011;43430;48.204;11.556;2023-02-28T03:54:47;10.10;;;2.28;;
57605;SDS011;43430;48.204;11.556;2023-02-28T04:00:12;9.20;;;2.97;;
57605;SDS011;43430;48.204;11.556;2023-02-28T04:02:44;8.30;;;2.80;;
57605;SDS011;43430;48.204;11.556;2023-02-28T04:05:09;7.35;;;2.22;;
57605;SDS011;43430;48.204;11.556;2023-02-28T04:07:35;10.20;;;2.47;;
57605;SDS011;43430;48.204;11.556;2023-02-28T04:10:01;8.20;;;3.00;;
57605;SDS011;43430;48.204;11.556;2023-02-28T04:12:27;6.55;;;2.78;;
57605;SDS011;43430;48.204;11.556;2023-02-28T04:14:53;5.43;;;2.10;;
57605;SDS011;43430;48.204;11.556;2023-02-28T04:17:18;9.90;;;2.60;;
57605;SDS011;43430;48.204;11.556;2023-02-28T04:19:44;5.78;;;2.30;;
57605;SDS011;43430;48.204;11.556;2023-02-28T04:22:09;7.07;;;2.95;;
57605;SDS011;43430;48.204;11.556;2023-02-28T04:24:35;6.55;;;2.40;;
57605;SDS011;43430;48.204;11.556;2023-02-28T04:27:01;7.03;;;2.58;;
57605;SDS011;43430;48.204;11.556;2023-02-28T04:29:31;10.10;;;3.65;;
57605;SDS011;43430;48.204;11.556;2023-02-28T04:31:57;8.02;;;3.15;;
57605;SDS011;43430;48.204;11.556;2023-02-28T04:34:24;7.38;;;2.45;;
57605;SDS011;43430;48.204;11.556;2023-02-28T04:36:54;8.13;;;3.20;;
57605;SDS011;43430;48.204;11.556;2023-02-28T04:39:20;8.68;;;3.13;;
57605;SDS011;43430;48.204;11.556;2023-02-28T04:41:47;8.32;;;3.28;;
57605;SDS011;43430;48.204;11.556;2023-02-28T04:44:13;10.68;;;4.05;;
57605;SDS011;43430;48.204;11.556;2023-02-28T04:46:39;8.13;;;3.20;;
57605;SDS011;43430;48.204;11.556;2023-02-28T04:49:05;10.80;;;3.47;;
57605;SDS011;43430;48.204;11.556;2023-02-28T04:51:30;10.35;;;3.22;;
57605;SDS011;43430;48.204;11.556;2023-02-28T04:53:56;9.50;;;3.47;;
57605;SDS011;43430;48.204;11.556;2023-02-28T04:56:21;9.32;;;3.65;;
57605;SDS011;43430;48.204;11.556;2023-02-28T04:58:47;9.23;;;3.83;;
57605;SDS011;43430;48.204;11.556;2023-02-28T05:01:24;10.30;;;3.70;;
57605;SDS011;43430;48.204;11.556;2023-02-28T05:03:51;9.38;;;3.88;;
57605;SDS011;43430;48.204;11.556;2023-02-28T05:06:18;9.60;;;3.30;;
57605;SDS011;43430;48.204;11.556;2023-02-28T05:08:45;11.88;;;4.15;;
57605;SDS011;43430;48.204;11.556;2023-02-28T05:11:18;8.98;;;3.47;;
57605;SDS011;43430;48.204;11.556;2023-02-28T05:13:48;10.75;;;4.18;;
57605;SDS011;43430;48.204;11.556;2023-02-28T05:16:15;10.27;;;3.90;;
57605;SDS011;43430;48.204;11.556;2023-02-28T05:18:41;6.95;;;3.38;;
57605;SDS011;43430;48.204;11.556;2023-02-28T05:21:12;11.07;;;4.05;;
57605;SDS011;43430;48.204;11.556;2023-02-28T05:23:53;11.90;;;4.00;;
57605;SDS011;43430;48.204;11.556;2023-02-28T05:26:20;10.90;;;3.80;;
57605;SDS011;43430;48.204;11.556;2023-02-28T05:28:46;11.82;;;4.55;;
57605;SDS011;43430;48.204;11.556;2023-02-28T05:31:11;11.10;;;4.65;;
57605;SDS011;43430;48.204;11.556;2023-02-28T05:33:37;9.85;;;4.15;;
57605;SDS011;43430;48.204;11.556;2023-02-28T05:36:02;9.45;;;4.60;;
57605;SDS011;43430;48.204;11.556;2023-02-28T05:38:28;12.43;;;5.03;;
57605;SDS011;43430;48.204;11.556;2023-02-28T05:40:53;10.32;;;4.03;;
57605;SDS011;43430;48.204;11.556;2023-02-28T05:43:19;10.98;;;4.72;;
57605;SDS011;43430;48.204;11.556;2023-02-28T05:45:44;13.20;;;5.50;;
57605;SDS011;43430;48.204;11.556;2023-02-28T05:48:09;9.27;;;4.22;;
57605;SDS011;43430;48.204;11.556;2023-02-28T05:50:35;8.73;;;3.60;;
57605;SDS011;43430;48.204;11.556;2023-02-28T05:53:01;13.05;;;4.90;;
57605;SDS011;43430;48.204;11.556;2023-02-28T05:55:26;10.75;;;4.28;;
57605;SDS011;43430;48.204;11.556;2023-02-28T05:57:51;10.07;;;4.20;;
57605;SDS011;43430;48.204;11.556;2023-02-28T06:00:17;11.00;;;4.93;;
57605;SDS011;43430;48.204;11.556;2023-02-28T06:02:43;11.18;;;4.32;;
57605;SDS011;43430;48.204;11.556;2023-02-28T06:05:15;12.38;;;5.50;;
57605;SDS011;43430;48.204;11.556;2023-02-28T06:07:42;10.82;;;4.68;;
57605;SDS011;43430;48.204;11.556;2023-02-28T06:10:08;11.85;;;4.93;;
57605;SDS011;43430;48.204;11.556;2023-02-28T06:12:34;14.27;;;4.78;;
57605;SDS011;43430;48.204;11.556;2023-02-28T06:15:00;13.93;;;5.38;;
57605;SDS011;43430;48.204;11.556;2023-02-28T06:17:25;11.52;;;5.18;;
57605;SDS011;43430;48.204;11.556;2023-02-28T06:19:50;13.40;;;4.85;;
57605;SDS011;43430;48.204;11.556;2023-02-28T06:22:16;14.80;;;5.45;;
57605;SDS011;43430;48.204;11.556;2023-02-28T06:24:41;13.48;;;6.18;;
57605;SDS011;43430;48.204;11.556;2023-02-28T06:27:06;12.93;;;6.03;;
57605;SDS011;43430;48.204;11.556;2023-02-28T06:29:33;11.27;;;4.72;;
57605;SDS011;43430;48.204;11.556;2023-02-28T06:31:59;10.35;;;5.38;;
57605;SDS011;43430;48.204;11.556;2023-02-28T06:34:24;14.60;;;5.32;;
57605;SDS011;43430;48.204;11.556;2023-02-28T06:36:50;12.85;;;5.20;;
57605;SDS011;43430;48.204;11.556;2023-02-28T06:39:16;13.07;;;5.90;;
57605;SDS011;43430;48.204;11.556;2023-02-28T06:41:42;15.45;;;5.95;;
57605;SDS011;43430;48.204;11.556;2023-02-28T06:44:12;14.77;;;5.63;;
57605;SDS011;43430;48.204;11.556;2023-02-28T06:46:42;15.02;;;6.00;;
57605;SDS011;43430;48.204;11.556;2023-02-28T06:49:08;16.58;;;5.55;;
57605;SDS011;43430;48.204;11.556;2023-02-28T06:51:35;15.55;;;5.88;;
57605;SDS011;43430;48.204;11.556;2023-02-28T06:54:02;17.20;;;6.38;;
57605;SDS011;43430;48.204;11.556;2023-02-28T06:56:27;14.40;;;6.47;;
57605;SDS011;43430;48.204;11.556;2023-02-28T06:58:53;20.33;;;7.20;;
57605;SDS011;43430;48.204;11.556;2023-02-28T07:01:18;18.23;;;6.00;;
57605;SDS011;43430;48.204;11.556;2023-02-28T07:03:44;14.15;;;7.07;;
57605;SDS011;43430;48.204;11.556;2023-02-28T07:06:11;15.13;;;6.55;;
57605;SDS011;43430;48.204;11.556;2023-02-28T07:08:36;15.95;;;7.80;;
57605;SDS011;43430;48.204;11.556;2023-02-28T07:11:03;18.73;;;7.15;;
57605;SDS011;43430;48.204;11.556;2023-02-28T07:13:29;16.77;;;6.13;;
57605;SDS011;43430;48.204;11.556;2023-02-28T07:16:02;16.00;;;6.47;;
57605;SDS011;43430;48.204;11.556;2023-02-28T07:18:29;13.20;;;5.88;;
57605;SDS011;43430;48.204;11.556;2023-02-28T07:20:55;18.05;;;7.28;;
57605;SDS011;43430;48.204;11.556;2023-02-28T07:23:21;17.63;;;7.32;;
57605;SDS011;43430;48.204;11.556;2023-02-28T07:25:46;16.50;;;7.60;;
57605;SDS011;43430;48.204;11.556;2023-02-28T07:28:12;15.65;;;6.97;;
57605;SDS011;43430;48.204;11.556;2023-02-28T07:30:39;18.00;;;7.32;;
57605;SDS011;43430;48.204;11.556;2023-02-28T07:33:04;18.77;;;7.85;;
57605;SDS011;43430;48.204;11.556;2023-02-28T07:35:30;15.68;;;7.25;;
57605;SDS011;43430;48.204;11.556;2023-02-28T07:37:57;20.15;;;8.57;;
57605;SDS011;43430;48.204;11.556;2023-02-28T07:40:23;18.67;;;8.18;;
57605;SDS011;43430;48.204;11.556;2023-02-28T07:42:52;25.00;;;7.47;;
57605;SDS011;43430;48.204;11.556;2023-02-28T07:45:17;25.90;;;9.65;;
57605;SDS011;43430;48.204;11.556;2023-02-28T07:47:43;18.33;;;8.57;;
57605;SDS011;43430;48.204;11.556;2023-02-28T07:50:10;17.10;;;8.30;;
57605;SDS011;43430;48.204;11.556;2023-02-28T07:52:37;17.85;;;8.10;;
57605;SDS011;43430;48.204;11.556;2023-02-28T07:55:03;18.48;;;8.07;;
57605;SDS011;43430;48.204;11.556;2023-02-28T07:57:29;17.52;;;7.55;;
57605;SDS011;43430;48.204;11.556;2023-02-28T07:59:55;14.98;;;8.40;;
57605;SDS011;43430;48.204;11.556;2023-02-28T08:02:20;16.75;;;7.32;;
57605;SDS011;43430;48.204;11.556;2023-02-28T08:04:46;17.77;;;8.18;;
57605;SDS011;43430;48.204;11.556;2023-02-28T08:07:12;18.42;;;8.40;;
57605;SDS011;43430;48.204;11.556;2023-02-28T08:09:39;18.33;;;8.07;;
57605;SDS011;43430;48.204;11.556;2023-02-28T08:12:05;16.75;;;7.57;;
57605;SDS011;43430;48.204;11.556;2023-02-28T08:14:34;16.10;;;8.05;;
57605;SDS011;43430;48.204;11.556;2023-02-28T08:17:00;16.27;;;8.05;;
57605;SDS011;43430;48.204;11.556;2023-02-28T08:19:25;20.65;;;8.63;;
57605;SDS011;43430;48.204;11.556;2023-02-28T08:21:50;18.73;;;7.32;;
57605;SDS011;43430;48.204;11.556;2023-02-28T08:24:16;17.75;;;7.85;;
57605;SDS011;43430;48.204;11.556;2023-02-28T08:26:41;22.52;;;8.50;;
57605;SDS011;43430;48.204;11.556;2023-02-28T08:29:07;18.00;;;7.65;;
57605;SDS011;43430;48.204;11.556;2023-02-28T08:31:32;20.90;;;9.20;;
57605;SDS011;43430;48.204;11.556;2023-02-28T08:33:57;16.90;;;7.97;;
57605;SDS011;43430;48.204;11.556;2023-02-28T08:36:24;17.30;;;7.47;;
57605;SDS011;43430;48.204;11.556;2023-02-28T08:38:53;19.98;;;8.25;;
57605;SDS011;43430;48.204;11.556;2023-02-28T08:41:18;18.23;;;7.38;;
57605;SDS011;43430;48.204;11.556;2023-02-28T08:43:44;20.08;;;7.78;;
57605;SDS011;43430;48.204;11.556;2023-02-28T08:46:11;19.98;;;8.60;;
57605;SDS011;43430;48.204;11.556;2023-02-28T08:48:38;18.42;;;8.82;;
57605;SDS011;43430;48.204;11.556;2023-02-28T08:53:34;19.13;;;8.55;;
57605;SDS011;43430;48.204;11.556;2023-02-28T08:56:05;18.25;;;8.10;;
57605;SDS011;43430;48.204;11.556;2023-02-28T08:58:34;19.27;;;9.25;;
57605;SDS011;43430;48.204;11.556;2023-02-28T09:01:00;17.58;;;8.65;;
57605;SDS011;43430;48.204;11.556;2023-02-28T09:03:33;17.10;;;8.35;;
57605;SDS011;43430;48.204;11.556;2023-02-28T09:05:59;19.42;;;8.25;;
57605;SDS011;43430;48.204;11.556;2023-02-28T09:08:26;17.88;;;8.63;;
57605;SDS011;43430;48.204;11.556;2023-02-28T09:10:55;16.45;;;7.40;;
57605;SDS011;43430;48.204;11.556;2023-02-28T09:13:22;17.48;;;8.32;;
57605;SDS011;43430;48.204;11.556;2023-02-28T09:15:49;18.83;;;8.88;;
57605;SDS011;43430;48.204;11.556;2023-02-28T09:18:14;15.68;;;8.00;;
57605;SDS011;43430;48.204;11.556;2023-02-28T09:20:41;20.40;;;8.90;;
57605;SDS011;43430;48.204;11.556;2023-02-28T09:23:08;16.90;;;7.50;;
57605;SDS011;43430;48.204;11.556;2023-02-28T09:25:34;15.52;;;7.85;;
57605;SDS011;43430;48.204;11.556;2023-02-28T09:28:00;18.58;;;8.85;;
57605;SDS011;43430;48.204;11.556;2023-02-28T09:30:26;23.90;;;9.10;;
57605;SDS011;43430;48.204;11.556;2023-02-28T09:32:51;19.58;;;9.07;;
57605;SDS011;43430;48.204;11.556;2023-02-28T09:35:18;22.58;;;9.30;;
57605;SDS011;43430;48.204;11.556;2023-02-28T09:37:51;25.65;;;8.90;;
57605;SDS011;43430;48.204;11.556;2023-02-28T09:40:17;18.70;;;8.88;;
57605;SDS011;43430;48.204;11.556;2023-02-28T09:42:47;17.40;;;8.98;;
57605;SDS011;43430;48.204;11.556;2023-02-28T09:45:50;19.73;;;8.15;;
57605;SDS011;43430;48.204;11.556;2023-02-28T09:48:19;15.20;;;8.00;;
57605;SDS011;43430;48.204;11.556;2023-02-28T09:50:50;19.08;;;8.68;;
57605;SDS011;43430;48.204;11.556;2023-02-28T09:53:38;19.55;;;8.40;;
57605;SDS011;43430;48.204;11.556;2023-02-28T09:56:09;17.00;;;7.20;;
57605;SDS011;43430;48.204;11.556;2023-02-28T09:58:49;17.15;;;8.75;;
57605;SDS011;43430;48.204;11.556;2023-02-28T10:01:21;21.83;;;8.82;;
57605;SDS011;43430;48.204;11.556;2023-02-28T10:06:22;17.88;;;7.95;;
57605;SDS011;43430;48.204;11.556;2023-02-28T10:08:58;15.98;;;7.88;;
57605;SDS011;43430;48.204;11.556;2023-02-28T10:11:28;21.60;;;8.55;;
57605;SDS011;43430;48.204;11.556;2023-02-28T10:14:12;22.45;;;9.57;;
57605;SDS011;43430;48.204;11.556;2023-02-28T10:16:42;16.92;;;7.72;;
57605;SDS011;43430;48.204;11.556;2023-02-28T10:19:20;18.10;;;8.23;;
57605;SDS011;43430;48.204;11.556;2023-02-28T10:29:44;18.92;;;9.57;;
57605;SDS011;43430;48.204;11.556;2023-02-28T10:32:13;17.60;;;8.48;;
57605;SDS011;43430;48.204;11.556;2023-02-28T10:34:41;18.05;;;8.43;;
57605;SDS011;43430;48.204;11.556;2023-02-28T10:37:07;16.30;;;8.25;;
57605;SDS011;43430;48.204;11.556;2023-02-28T10:39:40;17.40;;;8.63;;
57605;SDS011;43430;48.204;11.556;2023-02-28T10:42:29;18.40;;;8.88;;
57605;SDS011;43430;48.204;11.556;2023-02-28T10:45:14;18.55;;;7.95;;
57605;SDS011;43430;48.204;11.556;2023-02-28T10:47:54;16.40;;;7.75;;
57605;SDS011;43430;48.204;11.556;2023-02-28T10:50:30;19.92;;;8.68;;
57605;SDS011;43430;48.204;11.556;2023-02-28T10:53:45;15.85;;;8.65;;
57605;SDS011;43430;48.204;11.556;2023-02-28T10:56:05;18.27;;;8.48;;
57605;SDS011;43430;48.204;11.556;2023-02-28T11:01:43;22.35;;;8.15;;
57605;SDS011;43430;48.204;11.556;2023-02-28T11:07:01;16.33;;;8.48;;
57605;SDS011;43430;48.204;11.556;2023-02-28T11:09:35;16.55;;;7.97;;
57605;SDS011;43430;48.204;11.556;2023-02-28T11:12:04;14.88;;;7.88;;
57605;SDS011;43430;48.204;11.556;2023-02-28T11:14:54;16.58;;;8.13;;
57605;SDS011;43430;48.204;11.556;2023-02-28T11:17:27;17.80;;;7.88;;
57605;SDS011;43430;48.204;11.556;2023-02-28T11:19:59;15.25;;;7.63;;
57605;SDS011;43430;48.204;11.556;2023-02-28T11:22:30;17.15;;;8.15;;
57605;SDS011;43430;48.204;11.556;2023-02-28T11:25:02;16.73;;;7.47;;
57605;SDS011;43430;48.204;11.556;2023-02-28T11:30:02;15.93;;;8.25;;
57605;SDS011;43430;48.204;11.556;2023-02-28T11:32:29;17.17;;;8.80;;
57605;SDS011;43430;48.204;11.556;2023-02-28T11:37:36;14.88;;;7.93;;
57605;SDS011;43430;48.204;11.556;2023-02-28T11:40:04;14.27;;;8.02;;
57605;SDS011;43430;48.204;11.556;2023-02-28T11:45:23;14.70;;;8.13;;
57605;SDS011;43430;48.204;11.556;2023-02-28T11:48:01;16.38;;;8.73;;
57605;SDS011;43430;48.204;11.556;2023-02-28T11:53:41;18.48;;;8.63;;
57605;SDS011;43430;48.204;11.556;2023-02-28T11:59:48;13.10;;;7.28;;
57605;SDS011;43430;48.204;11.556;2023-02-28T12:02:15;16.08;;;7.25;;
57605;SDS011;43430;48.204;11.556;2023-02-28T12:07:59;14.30;;;7.07;;
57605;SDS011;43430;48.204;11.556;2023-02-28T12:10:35;17.05;;;7.95;;
57605;SDS011;43430;48.204;11.556;2023-02-28T12:13:18;16.35;;;7.93;;
57605;SDS011;43430;48.204;11.556;2023-02-28T12:15:58;16.60;;;7.32;;
57605;SDS011;43430;48.204;11.556;2023-02-28T12:18:46;13.98;;;7.28;;
57605;SDS011;43430;48.204;11.556;2023-02-28T12:21:24;16.88;;;8.05;;
57605;SDS011;43430;48.204;11.556;2023-02-28T12:24:05;16.73;;;7.93;;
57605;SDS011;43430;48.204;11.556;2023-02-28T12:26:51;12.85;;;6.38;;
57605;SDS011;43430;48.204;11.556;2023-02-28T12:32:07;13.95;;;7.57;;
57605;SDS011;43430;48.204;11.556;2023-02-28T12:34:39;14.98;;;6.93;;
57605;SDS011;43430;48.204;11.556;2023-02-28T12:37:14;17.02;;;7.53;;
57605;SDS011;43430;48.204;11.556;2023-02-28T12:39:49;14.55;;;6.45;;
57605;SDS011;43430;48.204;11.556;2023-02-28T12:42:24;15.15;;;7.30;;
57605;SDS011;43430;48.204;11.556;2023-02-28T12:44:58;16.20;;;7.82;;
57605;SDS011;43430;48.204;11.556;2023-02-28T12:47:26;13.52;;;7.53;;
57605;SDS011;43430;48.204;11.556;2023-02-28T12:49:53;18.90;;;7.63;;
57605;SDS011;43430;48.204;11.556;2023-02-28T13:09:14;17.55;;;7.30;;
57605;SDS011;43430;48.204;11.556;2023-02-28T13:11:42;17.10;;;7.13;;
57605;SDS011;43430;48.204;11.556;2023-02-28T13:16:53;14.13;;;6.78;;
57605;SDS011;43430;48.204;11.556;2023-02-28T13:19:20;12.68;;;6.22;;
57605;SDS011;43430;48.204;11.556;2023-02-28T13:21:49;12.95;;;6.95;;
57605;SDS011;43430;48.204;11.556;2023-02-28T13:29:28;16.33;;;7.70;;
57605;SDS011;43430;48.204;11.556;2023-02-28T13:39:55;13.65;;;6.70;;
57605;SDS011;43430;48.204;11.556;2023-02-28T13:47:28;13.23;;;6.72;;
57605;SDS011;43430;48.204;11.556;2023-02-28T13:50:14;13.32;;;7.00;;
57605;SDS011;43430;48.204;11.556;2023-02-28T14:07:16;14.55;;;6.50;;
57605;SDS011;43430;48.204;11.556;2023-02-28T14:10:04;12.45;;;6.88;;
57605;SDS011;43430;48.204;11.556;2023-02-28T14:15:38;12.23;;;7.15;;
57605;SDS011;43430;48.204;11.556;2023-02-28T14:20:49;11.00;;;6.28;;
57605;SDS011;43430;48.204;11.556;2023-02-28T14:31:15;13.82;;;5.80;;
57605;SDS011;43430;48.204;11.556;2023-02-28T14:36:28;17.40;;;6.90;;
57605;SDS011;43430;48.204;11.556;2023-02-28T14:38:59;11.60;;;6.80;;
57605;SDS011;43430;48.204;11.556;2023-02-28T14:41:31;14.35;;;7.03;;
57605;SDS011;43430;48.204;11.556;2023-02-28T14:44:03;11.10;;;6.28;;
57605;SDS011;43430;48.204;11.556;2023-02-28T14:46:49;12.07;;;6.07;;
57605;SDS011;43430;48.204;11.556;2023-02-28T14:49:19;12.88;;;6.22;;
57605;SDS011;43430;48.204;11.556;2023-02-28T14:51:49;12.25;;;6.45;;
57605;SDS011;43430;48.204;11.556;2023-02-28T14:54:26;15.27;;;6.50;;
57605;SDS011;43430;48.204;11.556;2023-02-28T14:56:51;16.65;;;7.18;;
57605;SDS011;43430;48.204;11.556;2023-02-28T14:59:24;13.95;;;7.32;;
57605;SDS011;43430;48.204;11.556;2023-02-28T15:04:51;11.77;;;6.57;;
57605;SDS011;43430;48.204;11.556;2023-02-28T15:07:35;10.73;;;6.03;;
57605;SDS011;43430;48.204;11.556;2023-02-28T15:10:13;13.98;;;6.25;;
57605;SDS011;43430;48.204;11.556;2023-02-28T15:12:39;12.80;;;6.40;;
57605;SDS011;43430;48.204;11.556;2023-02-28T15:15:06;17.75;;;7.38;;
57605;SDS011;43430;48.204;11.556;2023-02-28T15:17:39;11.90;;;6.55;;
57605;SDS011;43430;48.204;11.556;2023-02-28T15:20:05;12.52;;;6.72;;
57605;SDS011;43430;48.204;11.556;2023-02-28T15:25:04;15.30;;;7.75;;
57605;SDS011;43430;48.204;11.556;2023-02-28T15:27:31;18.00;;;9.13;;
57605;SDS011;43430;48.204;11.556;2023-02-28T15:29:59;23.52;;;10.55;;
57605;SDS011;43430;48.204;11.556;2023-02-28T15:32:31;13.23;;;7.00;;
57605;SDS011;43430;48.204;11.556;2023-02-28T15:34:59;12.68;;;6.50;;
57605;SDS011;43430;48.204;11.556;2023-02-28T15:40:41;15.98;;;7.28;;
57605;SDS011;43430;48.204;11.556;2023-02-28T15:43:16;15.45;;;6.85;;
57605;SDS011;43430;48.204;11.556;2023-02-28T15:45:47;16.08;;;7.38;;
57605;SDS011;43430;48.204;11.556;2023-02-28T15:50:40;13.27;;;6.65;;
57605;SDS011;43430;48.204;11.556;2023-02-28T15:53:11;13.98;;;7.30;;
57605;SDS011;43430;48.204;11.556;2023-02-28T15:55:39;15.40;;;6.93;;
57605;SDS011;43430;48.204;11.556;2023-02-28T15:58:04;16.17;;;7.55;;
57605;SDS011;43430;48.204;11.556;2023-02-28T16:00:31;14.07;;;7.43;;
57605;SDS011;43430;48.204;11.556;2023-02-28T16:02:58;12.35;;;6.50;;
57605;SDS011;43430;48.204;11.556;2023-02-28T16:05:27;12.52;;;6.47;;
57605;SDS011;43430;48.204;11.556;2023-02-28T16:08:17;14.80;;;6.80;;
57605;SDS011;43430;48.204;11.556;2023-02-28T16:10:42;15.02;;;7.72;;
57605;SDS011;43430;48.204;11.556;2023-02-28T16:13:08;14.18;;;7.78;;
57605;SDS011;43430;48.204;11.556;2023-02-28T16:15:39;13.63;;;6.78;;
57605;SDS011;43430;48.204;11.556;2023-02-28T16:18:08;18.10;;;7.53;;
57605;SDS011;43430;48.204;11.556;2023-02-28T16:20:36;17.95;;;7.80;;
57605;SDS011;43430;48.204;11.556;2023-02-28T16:23:01;15.82;;;7.78;;
57605;SDS011;43430;48.204;11.556;2023-02-28T16:25:34;16.48;;;9.98;;
57605;SDS011;43430;48.204;11.556;2023-02-28T16:28:01;16.67;;;7.65;;
57605;SDS011;43430;48.204;11.556;2023-02-28T16:30:28;14.82;;;6.00;;
57605;SDS011;43430;48.204;11.556;2023-02-28T16:32:58;16.00;;;6.90;;
57605;SDS011;43430;48.204;11.556;2023-02-28T16:35:24;11.90;;;6.43;;
57605;SDS011;43430;48.204;11.556;2023-02-28T16:37:50;20.00;;;8.65;;
57605;SDS011;43430;48.204;11.556;2023-02-28T16:40:19;29.00;;;10.52;;
57605;SDS011;43430;48.204;11.556;2023-02-28T16:42:50;19.43;;;8.83;;
57605;SDS011;43430;48.204;11.556;2023-02-28T16:45:27;35.20;;;17.17;;
57605;SDS011;43430;48.204;11.556;2023-02-28T16:47:54;13.85;;;6.95;;
57605;SDS011;43430;48.204;11.556;2023-02-28T16:50:21;15.30;;;7.85;;
57605;SDS011;43430;48.204;11.556;2023-02-28T16:52:49;20.08;;;10.60;;
57605;SDS011;43430;48.204;11.556;2023-02-28T16:55:17;21.30;;;10.48;;
57605;SDS011;43430;48.204;11.556;2023-02-28T16:57:50;13.77;;;7.30;;
57605;SDS011;43430;48.204;11.556;2023-02-28T17:00:18;20.02;;;9.15;;
57605;SDS011;43430;48.204;11.556;2023-02-28T17:02:43;16.25;;;8.48;;
57605;SDS011;43430;48.204;11.556;2023-02-28T17:05:11;15.93;;;7.25;;
57605;SDS011;43430;48.204;11.556;2023-02-28T17:07:36;19.25;;;8.75;;
57605;SDS011;43430;48.204;11.556;2023-02-28T17:10:04;18.02;;;8.15;;
57605;SDS011;43430;48.204;11.556;2023-02-28T17:12:37;18.45;;;8.25;;
57605;SDS011;43430;48.204;11.556;2023-02-28T17:15:03;17.65;;;8.18;;
57605;SDS011;43430;48.204;11.556;2023-02-28T17:17:28;16.85;;;7.97;;
57605;SDS011;43430;48.204;11.556;2023-02-28T17:19:55;16.23;;;9.10;;
57605;SDS011;43430;48.204;11.556;2023-02-28T17:22:20;17.70;;;8.45;;
57605;SDS011;43430;48.204;11.556;2023-02-28T17:24:45;15.10;;;7.53;;